createdAt,value
2018-03-30T00:00:49.034Z,804.22
2018-03-30T00:01:49.014Z,804.21
2018-03-30T00:02:49.021Z,804.27
2018-03-30T00:03:49.026Z,804.24
2018-03-30T00:04:49.036Z,804.23
2018-03-30T00:05:49.041Z,804.22
2018-03-30T00:06:49.042Z,804.23
2018-03-30T00:07:49.052Z,804.27
2018-03-30T00:08:49.057Z,804.26
2018-03-30T00:09:49.058Z,804.23
2018-03-30T00:10:49.063Z,804.26
2018-03-30T00:11:49.069Z,804.25
2018-03-30T00:12:49.079Z,804.25
2018-03-30T00:13:49.077Z,804.26
2018-03-30T00:14:49.086Z,804.21
2018-03-30T00:15:49.094Z,804.22
2018-03-30T00:16:49.095Z,804.20
2018-03-30T00:17:49.105Z,804.14
2018-03-30T00:18:49.111Z,804.18
2018-03-30T00:19:49.111Z,804.15
2018-03-30T00:20:49.121Z,804.15
2018-03-30T00:21:49.127Z,804.21
2018-03-30T00:22:49.129Z,804.18
2018-03-30T00:23:49.138Z,804.18
2018-03-30T00:24:49.144Z,804.15
2018-03-30T00:25:49.149Z,804.17
2018-03-30T00:26:49.154Z,804.16
2018-03-30T00:27:49.160Z,804.17
2018-03-30T00:28:49.164Z,804.16
2018-03-30T00:29:49.165Z,804.15
2018-03-30T00:30:49.175Z,804.14
2018-03-30T00:31:49.176Z,804.12
2018-03-30T00:32:49.185Z,804.11
2018-03-30T00:33:49.193Z,804.07
2018-03-30T00:34:49.191Z,804.07
2018-03-30T00:35:49.199Z,804.05
2018-03-30T00:36:49.202Z,804.04
2018-03-30T00:37:49.214Z,804.05
2018-03-30T00:38:49.225Z,804.05
2018-03-30T00:39:49.222Z,804.05
2018-03-30T00:40:49.223Z,804.05
2018-03-30T00:41:49.230Z,804.02
2018-03-30T00:42:49.239Z,804.02
2018-03-30T00:43:49.241Z,804.02
2018-03-30T00:44:49.246Z,803.99
2018-03-30T00:45:49.252Z,804.01
2018-03-30T00:46:49.256Z,804.00
2018-03-30T00:47:49.268Z,804.00
2018-03-30T00:48:49.273Z,803.98
2018-03-30T00:49:49.278Z,803.97
2018-03-30T00:50:49.290Z,804.03
2018-03-30T00:51:49.291Z,804.00
2018-03-30T00:52:49.294Z,803.97
2018-03-30T00:53:49.302Z,804.00
2018-03-30T00:54:49.306Z,803.96
2018-03-30T00:55:49.307Z,803.94
2018-03-30T00:56:49.316Z,803.92
2018-03-30T00:57:49.317Z,803.92
2018-03-30T00:58:49.328Z,803.93
2018-03-30T00:59:49.333Z,803.94
2018-03-30T01:00:49.332Z,803.90
2018-03-30T01:01:49.354Z,803.85
2018-03-30T01:02:49.346Z,803.84
2018-03-30T01:03:49.356Z,803.83
2018-03-30T01:04:49.366Z,803.81
2018-03-30T01:05:49.367Z,803.80
2018-03-30T01:06:49.372Z,803.78
2018-03-30T01:07:49.379Z,803.81
2018-03-30T01:08:49.379Z,803.79
2018-03-30T01:09:49.385Z,803.84
2018-03-30T01:10:49.395Z,803.85
2018-03-30T01:11:49.402Z,803.84
2018-03-30T01:12:49.400Z,803.81
2018-03-30T01:13:49.405Z,803.83
2018-03-30T01:14:49.418Z,803.79
2018-03-30T01:15:49.417Z,803.77
2018-03-30T01:16:49.428Z,803.78
2018-03-30T01:17:49.428Z,803.74
2018-03-30T01:18:49.440Z,803.78
2018-03-30T01:19:49.440Z,803.75
2018-03-30T01:20:49.446Z,803.74
2018-03-30T01:21:49.456Z,803.70
2018-03-30T01:22:49.467Z,803.66
2018-03-30T01:23:49.467Z,803.65
2018-03-30T01:24:49.466Z,803.64
2018-03-30T01:25:49.477Z,803.68
2018-03-30T01:26:49.477Z,803.67
2018-03-30T01:27:49.490Z,803.65
2018-03-30T01:28:49.492Z,803.63
2018-03-30T01:29:49.493Z,803.62
2018-03-30T01:30:49.505Z,803.64
2018-03-30T01:31:49.507Z,803.64
2018-03-30T01:32:49.515Z,803.64
2018-03-30T01:33:49.513Z,803.66
2018-03-30T01:34:49.520Z,803.69
2018-03-30T01:35:49.538Z,803.68
2018-03-30T01:36:49.551Z,803.65
2018-03-30T01:37:49.540Z,803.68
2018-03-30T01:38:49.542Z,803.65
2018-03-30T01:39:49.551Z,803.63
2018-03-30T01:40:49.557Z,803.65
2018-03-30T01:41:49.561Z,803.67
2018-03-30T01:42:49.577Z,803.64
2018-03-30T01:43:49.573Z,803.67
2018-03-30T01:44:49.576Z,803.64
2018-03-30T01:45:49.578Z,803.67
2018-03-30T01:46:49.590Z,803.67
2018-03-30T01:47:49.595Z,803.63
2018-03-30T01:48:49.593Z,803.62
2018-03-30T01:49:49.599Z,803.62
2018-03-30T01:50:49.609Z,803.61
2018-03-30T01:51:49.616Z,803.61
2018-03-30T01:52:49.623Z,803.61
2018-03-30T01:53:49.627Z,803.63
2018-03-30T01:54:49.632Z,803.62
2018-03-30T01:55:49.639Z,803.62
2018-03-30T01:56:49.642Z,803.63
2018-03-30T01:57:49.650Z,803.62
2018-03-30T01:58:49.658Z,803.62
2018-03-30T01:59:49.655Z,803.62
2018-03-30T02:00:49.669Z,803.61
2018-03-30T02:01:49.673Z,803.61
2018-03-30T02:02:49.677Z,803.61
2018-03-30T02:03:49.681Z,803.57
2018-03-30T02:04:49.687Z,803.57
2018-03-30T02:05:49.694Z,803.55
2018-03-30T02:06:49.699Z,803.57
2018-03-30T02:07:49.699Z,803.58
2018-03-30T02:08:49.713Z,803.59
2018-03-30T02:09:49.711Z,803.53
2018-03-30T02:10:49.714Z,803.60
2018-03-30T02:11:49.721Z,803.60
2018-03-30T02:12:49.725Z,803.60
2018-03-30T02:13:49.735Z,803.61
2018-03-30T02:14:49.737Z,803.57
2018-03-30T02:15:49.742Z,803.54
2018-03-30T02:16:49.745Z,803.56
2018-03-30T02:17:49.760Z,803.47
2018-03-30T02:18:49.758Z,803.54
2018-03-30T02:19:49.762Z,803.48
2018-03-30T02:20:49.769Z,803.53
2018-03-30T02:21:49.779Z,803.55
2018-03-30T02:22:49.784Z,803.51
2018-03-30T02:23:49.790Z,803.52
2018-03-30T02:24:49.795Z,803.52
2018-03-30T02:25:49.800Z,803.52
2018-03-30T02:26:49.805Z,803.53
2018-03-30T02:27:49.812Z,803.54
2018-03-30T02:28:49.816Z,803.55
2018-03-30T02:29:49.815Z,803.57
2018-03-30T02:30:49.834Z,803.51
2018-03-30T02:31:49.828Z,803.58
2018-03-30T02:32:49.837Z,803.58
2018-03-30T02:33:49.837Z,803.57
2018-03-30T02:34:49.849Z,803.56
2018-03-30T02:35:49.854Z,803.61
2018-03-30T02:36:49.855Z,803.61
2018-03-30T02:37:49.865Z,803.59
2018-03-30T02:38:49.863Z,803.63
2018-03-30T02:39:49.876Z,803.61
2018-03-30T02:40:49.874Z,803.58
2018-03-30T02:41:49.894Z,803.64
2018-03-30T02:42:49.891Z,803.58
2018-03-30T02:43:49.896Z,803.57
2018-03-30T02:44:49.899Z,803.54
2018-03-30T02:45:49.905Z,803.58
2018-03-30T02:46:49.906Z,803.56
2018-03-30T02:47:49.916Z,803.55
2018-03-30T02:48:49.920Z,803.61
2018-03-30T02:49:49.921Z,803.60
2018-03-30T02:50:49.926Z,803.59
2018-03-30T02:51:49.932Z,803.60
2018-03-30T02:52:49.937Z,803.63
2018-03-30T02:53:49.950Z,803.62
2018-03-30T02:54:49.950Z,803.63
2018-03-30T02:55:49.958Z,803.58
2018-03-30T02:56:49.956Z,803.61
2018-03-30T02:57:49.968Z,803.58
2018-03-30T02:58:49.966Z,803.52
2018-03-30T02:59:49.974Z,803.56
2018-03-30T03:00:49.977Z,803.51
2018-03-30T03:01:49.988Z,803.54
2018-03-30T03:02:49.999Z,803.54
2018-03-30T03:03:49.994Z,803.52
2018-03-30T03:04:50.002Z,803.53
2018-03-30T03:05:50.007Z,803.50
2018-03-30T03:06:50.017Z,803.53
2018-03-30T03:07:50.019Z,803.53
2018-03-30T03:08:50.018Z,803.51
2018-03-30T03:09:50.024Z,803.47
2018-03-30T03:10:50.028Z,803.45
2018-03-30T03:11:50.040Z,803.44
2018-03-30T03:12:50.039Z,803.42
2018-03-30T03:13:50.049Z,803.46
2018-03-30T03:14:50.056Z,803.42
2018-03-30T03:15:50.060Z,803.42
2018-03-30T03:16:50.060Z,803.42
2018-03-30T03:17:50.062Z,803.40
2018-03-30T03:18:50.070Z,803.42
2018-03-30T03:19:50.072Z,803.39
2018-03-30T03:20:50.082Z,803.42
2018-03-30T03:21:50.083Z,803.42
2018-03-30T03:22:50.088Z,803.39
2018-03-30T03:23:50.095Z,803.36
2018-03-30T03:24:50.098Z,803.31
2018-03-30T03:25:50.110Z,803.28
2018-03-30T03:26:50.107Z,803.26
2018-03-30T03:27:50.123Z,803.25
2018-03-30T03:28:50.157Z,803.25
2018-03-30T03:29:50.129Z,803.21
2018-03-30T03:30:50.128Z,803.20
2018-03-30T03:31:50.138Z,803.15
2018-03-30T03:32:50.141Z,803.12
2018-03-30T03:33:50.148Z,803.10
2018-03-30T03:34:50.147Z,803.07
2018-03-30T03:35:50.152Z,803.05
2018-03-30T03:36:50.158Z,803.04
2018-03-30T03:37:50.171Z,803.01
2018-03-30T03:38:50.168Z,803.02
2018-03-30T03:39:50.172Z,803.03
2018-03-30T03:40:50.175Z,803.06
2018-03-30T03:41:50.186Z,803.05
2018-03-30T03:42:50.187Z,803.04
2018-03-30T03:43:50.199Z,802.94
2018-03-30T03:44:50.201Z,802.98
2018-03-30T03:45:50.213Z,802.96
2018-03-30T03:46:50.211Z,802.96
2018-03-30T03:47:50.217Z,802.95
2018-03-30T03:48:50.217Z,802.95
2018-03-30T03:49:50.227Z,802.92
2018-03-30T03:50:50.228Z,802.94
2018-03-30T03:51:50.248Z,802.93
2018-03-30T03:52:50.236Z,802.94
2018-03-30T03:53:50.242Z,802.95
2018-03-30T03:54:50.248Z,802.94
2018-03-30T03:55:50.257Z,802.96
2018-03-30T03:56:50.261Z,802.95
2018-03-30T03:57:50.262Z,802.96
2018-03-30T03:58:50.267Z,802.92
2018-03-30T03:59:50.284Z,802.94
2018-03-30T04:00:50.276Z,802.89
2018-03-30T04:01:50.287Z,802.93
2018-03-30T04:02:50.292Z,802.92
2018-03-30T04:03:50.297Z,802.90
2018-03-30T04:04:50.302Z,802.92
2018-03-30T04:05:50.306Z,802.92
2018-03-30T04:06:50.307Z,802.89
2018-03-30T04:07:50.312Z,802.88
2018-03-30T04:08:50.322Z,802.84
2018-03-30T04:09:50.323Z,802.82
2018-03-30T04:10:50.332Z,802.82
2018-03-30T04:11:50.333Z,802.85
2018-03-30T04:12:50.337Z,802.85
2018-03-30T04:13:50.348Z,802.85
2018-03-30T04:14:50.355Z,802.83
2018-03-30T04:15:50.359Z,802.87
2018-03-30T04:16:50.365Z,802.83
2018-03-30T04:17:50.366Z,802.81
2018-03-30T04:18:50.372Z,802.78
2018-03-30T04:19:50.378Z,802.81
2018-03-30T04:20:50.377Z,802.80
2018-03-30T04:21:50.386Z,802.74
2018-03-30T04:22:50.390Z,802.73
2018-03-30T04:23:50.393Z,802.67
2018-03-30T04:24:50.405Z,802.69
2018-03-30T04:25:50.403Z,802.68
2018-03-30T04:26:50.413Z,802.62
2018-03-30T04:27:50.418Z,802.62
2018-03-30T04:28:50.423Z,802.59
2018-03-30T04:29:50.428Z,802.59
2018-03-30T04:30:50.430Z,802.54
2018-03-30T04:31:50.434Z,802.55
2018-03-30T04:32:50.443Z,802.56
2018-03-30T04:33:50.455Z,802.52
2018-03-30T04:34:50.449Z,802.49
2018-03-30T04:35:50.459Z,802.48
2018-03-30T04:36:50.460Z,802.45
2018-03-30T04:37:50.463Z,802.44
2018-03-30T04:38:50.473Z,802.42
2018-03-30T04:39:50.474Z,802.43
2018-03-30T04:40:50.484Z,802.44
2018-03-30T04:41:50.485Z,802.42
2018-03-30T04:42:50.496Z,802.41
2018-03-30T04:43:50.500Z,802.42
2018-03-30T04:44:50.499Z,802.40
2018-03-30T04:45:50.513Z,802.38
2018-03-30T04:46:50.514Z,802.38
2018-03-30T04:47:50.519Z,802.34
2018-03-30T04:48:50.519Z,802.28
2018-03-30T04:49:50.524Z,802.28
2018-03-30T04:50:50.535Z,802.23
2018-03-30T04:51:50.541Z,802.23
2018-03-30T04:52:50.546Z,802.26
2018-03-30T04:53:50.543Z,802.26
2018-03-30T04:54:50.549Z,802.23
2018-03-30T04:55:50.561Z,802.28
2018-03-30T04:56:50.565Z,802.25
2018-03-30T04:57:50.566Z,802.24
2018-03-30T04:58:50.577Z,802.15
2018-03-30T04:59:50.581Z,802.18
2018-03-30T05:00:50.580Z,802.14
2018-03-30T05:01:50.600Z,802.20
2018-03-30T05:02:50.597Z,802.20
2018-03-30T05:03:50.602Z,802.22
2018-03-30T05:04:50.606Z,802.23
2018-03-30T05:05:50.613Z,802.26
2018-03-30T05:06:50.617Z,802.24
2018-03-30T05:07:50.673Z,802.24
2018-03-30T05:08:50.627Z,802.21
2018-03-30T05:09:50.636Z,802.21
2018-03-30T05:10:50.632Z,802.23
2018-03-30T05:11:50.649Z,802.26
2018-03-30T05:12:50.640Z,802.25
2018-03-30T05:13:50.647Z,802.24
2018-03-30T05:14:50.658Z,802.23
2018-03-30T05:15:50.659Z,802.21
2018-03-30T05:16:50.662Z,802.21
2018-03-30T05:17:50.673Z,802.18
2018-03-30T05:18:50.673Z,802.18
2018-03-30T05:19:50.681Z,802.24
2018-03-30T05:20:50.688Z,802.25
2018-03-30T05:21:50.696Z,802.21
2018-03-30T05:22:50.692Z,802.25
2018-03-30T05:23:50.708Z,802.19
2018-03-30T05:24:50.703Z,802.23
2018-03-30T05:25:50.723Z,802.22
2018-03-30T05:26:50.713Z,802.18
2018-03-30T05:27:50.719Z,802.21
2018-03-30T05:28:50.731Z,802.25
2018-03-30T05:29:50.728Z,802.23
2018-03-30T05:30:50.735Z,802.22
2018-03-30T05:31:50.744Z,802.22
2018-03-30T05:32:50.744Z,802.27
2018-03-30T05:33:50.750Z,802.27
2018-03-30T05:34:50.760Z,802.27
2018-03-30T05:35:50.775Z,802.25
2018-03-30T05:36:50.765Z,802.29
2018-03-30T05:37:50.770Z,802.32
2018-03-30T05:38:50.783Z,802.28
2018-03-30T05:39:50.796Z,802.30
2018-03-30T05:40:50.790Z,802.31
2018-03-30T05:41:50.803Z,802.28
2018-03-30T05:42:50.796Z,802.25
2018-03-30T05:43:50.801Z,802.22
2018-03-30T05:44:50.811Z,802.26
2018-03-30T05:45:50.812Z,802.23
2018-03-30T05:46:50.822Z,802.19
2018-03-30T05:47:50.828Z,802.19
2018-03-30T05:48:50.826Z,802.20
2018-03-30T05:49:50.837Z,802.17
2018-03-30T05:50:50.840Z,802.13
2018-03-30T05:51:50.847Z,802.14
2018-03-30T05:52:50.851Z,802.10
2018-03-30T05:53:50.858Z,802.13
2018-03-30T05:54:50.859Z,802.13
2018-03-30T05:55:50.861Z,802.13
2018-03-30T05:56:50.867Z,802.12
2018-03-30T05:57:50.874Z,802.11
2018-03-30T05:58:50.877Z,802.11
2018-03-30T05:59:50.884Z,802.11
2018-03-30T06:00:50.892Z,802.12
2018-03-30T06:01:50.898Z,802.11
2018-03-30T06:02:50.898Z,802.10
2018-03-30T06:03:50.904Z,802.10
2018-03-30T06:04:50.917Z,802.07
2018-03-30T06:05:50.920Z,802.07
2018-03-30T06:06:50.918Z,802.06
2018-03-30T06:07:50.932Z,802.04
2018-03-30T06:08:50.933Z,802.06
2018-03-30T06:09:50.941Z,801.99
2018-03-30T06:10:50.940Z,802.06
2018-03-30T06:11:50.952Z,802.03
2018-03-30T06:12:50.952Z,802.02
2018-03-30T06:13:50.956Z,802.04
2018-03-30T06:14:50.962Z,802.00
2018-03-30T06:15:50.975Z,801.96
2018-03-30T06:16:50.977Z,801.95
2018-03-30T06:17:50.982Z,801.91
2018-03-30T06:18:50.981Z,801.91
2018-03-30T06:19:50.993Z,801.85
2018-03-30T06:20:50.999Z,801.87
2018-03-30T06:21:51.004Z,801.92
2018-03-30T06:22:51.008Z,801.89
2018-03-30T06:23:51.014Z,801.93
2018-03-30T06:24:51.012Z,801.93
2018-03-30T06:25:51.024Z,801.93
2018-03-30T06:26:51.050Z,801.93
2018-03-30T06:27:51.029Z,801.92
2018-03-30T06:28:51.033Z,801.92
2018-03-30T06:29:51.047Z,801.89
2018-03-30T06:30:51.044Z,801.92
2018-03-30T06:31:51.056Z,801.88
2018-03-30T06:32:51.058Z,801.87
2018-03-30T06:33:51.060Z,801.88
2018-03-30T06:34:51.073Z,801.87
2018-03-30T06:35:51.077Z,801.84
2018-03-30T06:36:51.083Z,801.84
2018-03-30T06:37:51.086Z,801.86
2018-03-30T06:38:51.087Z,801.83
2018-03-30T06:39:51.092Z,801.81
2018-03-30T06:40:51.105Z,801.83
2018-03-30T06:41:51.104Z,801.85
2018-03-30T06:42:51.112Z,801.83
2018-03-30T06:43:51.120Z,801.84
2018-03-30T06:44:51.126Z,801.87
2018-03-30T06:45:51.130Z,801.82
2018-03-30T06:46:51.136Z,801.80
2018-03-30T06:47:51.136Z,801.74
2018-03-30T06:48:51.151Z,801.78
2018-03-30T06:49:51.150Z,801.72
2018-03-30T06:50:51.151Z,801.67
2018-03-30T06:51:51.158Z,801.69
2018-03-30T06:52:51.168Z,801.67
2018-03-30T06:53:51.174Z,801.66
2018-03-30T06:54:51.183Z,801.70
2018-03-30T06:55:51.182Z,801.65
2018-03-30T06:56:51.186Z,801.60
2018-03-30T06:57:51.197Z,801.55
2018-03-30T06:58:51.199Z,801.55
2018-03-30T06:59:51.203Z,801.51
2018-03-30T07:00:51.210Z,801.54
2018-03-30T07:01:51.220Z,801.56
2018-03-30T07:02:51.220Z,801.54
2018-03-30T07:03:51.233Z,801.49
2018-03-30T07:04:51.238Z,801.48
2018-03-30T07:05:51.244Z,801.48
2018-03-30T07:06:51.244Z,801.46
2018-03-30T07:07:51.253Z,801.42
2018-03-30T07:08:51.262Z,801.38
2018-03-30T07:09:51.263Z,801.40
2018-03-30T07:10:51.276Z,801.36
2018-03-30T07:11:51.281Z,801.38
2018-03-30T07:12:51.292Z,801.38
2018-03-30T07:13:51.286Z,801.36
2018-03-30T07:14:51.298Z,801.35
2018-03-30T07:15:51.308Z,801.29
2018-03-30T07:16:51.304Z,801.25
2018-03-30T07:17:51.313Z,801.27
2018-03-30T07:18:51.316Z,801.23
2018-03-30T07:19:51.328Z,801.25
2018-03-30T07:20:51.336Z,801.25
2018-03-30T07:21:51.342Z,801.27
2018-03-30T07:22:51.347Z,801.23
2018-03-30T07:23:51.353Z,801.21
2018-03-30T07:24:51.359Z,801.23
2018-03-30T07:25:51.367Z,801.21
2018-03-30T07:26:51.374Z,801.19
2018-03-30T07:27:51.380Z,801.21
2018-03-30T07:28:51.384Z,801.25
2018-03-30T07:29:51.386Z,801.21
2018-03-30T07:30:51.390Z,801.21
2018-03-30T07:31:51.398Z,801.15
2018-03-30T07:32:51.410Z,801.16
2018-03-30T07:33:51.414Z,801.17
2018-03-30T07:34:51.425Z,801.15
2018-03-30T07:35:51.431Z,801.14
2018-03-30T07:36:51.434Z,801.15
2018-03-30T07:37:51.437Z,801.14
2018-03-30T07:38:51.444Z,801.10
2018-03-30T07:39:51.455Z,801.09
2018-03-30T07:40:51.463Z,801.11
2018-03-30T07:41:51.465Z,801.09
2018-03-30T07:42:51.474Z,801.10
2018-03-30T07:43:51.484Z,801.12
2018-03-30T07:44:51.489Z,801.08
2018-03-30T07:45:51.493Z,801.07
2018-03-30T07:46:51.504Z,801.08
2018-03-30T07:47:51.505Z,801.12
2018-03-30T07:48:51.514Z,801.09
2018-03-30T07:49:51.525Z,801.07
2018-03-30T07:50:51.531Z,801.07
2018-03-30T07:51:51.541Z,801.09
2018-03-30T07:52:51.539Z,801.07
2018-03-30T07:53:51.553Z,801.06
2018-03-30T07:54:51.563Z,801.05
2018-03-30T07:55:51.567Z,801.02
2018-03-30T07:56:51.577Z,800.93
2018-03-30T07:57:51.583Z,800.94
2018-03-30T07:58:51.590Z,800.91
2018-03-30T07:59:51.595Z,800.88
2018-03-30T08:00:51.603Z,800.88
2018-03-30T08:01:51.613Z,800.92
2018-03-30T08:02:51.618Z,800.98
2018-03-30T08:03:51.627Z,801.02
2018-03-30T08:04:51.627Z,800.94
2018-03-30T08:05:51.635Z,800.89
2018-03-30T08:06:51.650Z,800.83
2018-03-30T08:07:51.656Z,800.82
2018-03-30T08:08:51.657Z,800.89
2018-03-30T08:09:51.670Z,800.84
2018-03-30T08:10:51.674Z,800.80
2018-03-30T08:11:51.683Z,800.80
2018-03-30T08:12:51.685Z,800.76
2018-03-30T08:13:51.701Z,800.74
2018-03-30T08:14:51.707Z,800.71
2018-03-30T08:15:51.746Z,800.70
2018-03-30T08:16:51.722Z,800.69
2018-03-30T08:17:51.728Z,800.68
2018-03-30T08:18:51.739Z,800.72
2018-03-30T08:19:51.744Z,800.69
2018-03-30T08:20:51.752Z,800.77
2018-03-30T08:21:51.761Z,800.74
2018-03-30T08:22:51.762Z,800.69
2018-03-30T08:23:51.770Z,800.69
2018-03-30T08:24:51.782Z,800.68
2018-03-30T08:25:51.787Z,800.62
2018-03-30T08:26:51.799Z,800.70
2018-03-30T08:27:51.801Z,800.68
2018-03-30T08:28:51.817Z,800.72
2018-03-30T08:29:51.822Z,800.68
2018-03-30T08:30:51.823Z,800.70
2018-03-30T08:31:51.834Z,800.72
2018-03-30T08:32:51.844Z,800.71
2018-03-30T08:33:51.855Z,800.67
2018-03-30T08:34:51.853Z,800.65
2018-03-30T08:35:51.861Z,800.65
2018-03-30T08:36:51.876Z,800.69
2018-03-30T08:37:51.890Z,800.64
2018-03-30T08:38:51.884Z,800.62
2018-03-30T08:39:51.893Z,800.60
2018-03-30T08:40:51.904Z,800.64
2018-03-30T08:41:51.956Z,800.63
2018-03-30T08:42:51.920Z,800.60
2018-03-30T08:43:51.930Z,800.58
2018-03-30T08:44:51.932Z,800.60
2018-03-30T08:45:51.939Z,800.59
2018-03-30T08:46:51.950Z,800.61
2018-03-30T08:47:51.961Z,800.63
2018-03-30T08:48:51.964Z,800.61
2018-03-30T08:49:51.977Z,800.67
2018-03-30T08:50:51.987Z,800.63
2018-03-30T08:51:51.994Z,800.61
2018-03-30T08:52:51.997Z,800.63
2018-03-30T08:53:52.005Z,800.64
2018-03-30T08:54:52.020Z,800.65
2018-03-30T08:55:52.026Z,800.69
2018-03-30T08:56:52.035Z,800.75
2018-03-30T08:57:52.038Z,800.74
2018-03-30T08:58:52.046Z,800.71
2018-03-30T08:59:52.058Z,800.73
2018-03-30T09:00:52.064Z,800.70
2018-03-30T09:01:52.075Z,800.71
2018-03-30T09:02:52.081Z,800.69
2018-03-30T09:03:52.099Z,800.72
2018-03-30T09:04:52.097Z,800.74
2018-03-30T09:05:52.111Z,800.72
2018-03-30T09:06:52.116Z,800.68
2018-03-30T09:07:52.123Z,800.72
2018-03-30T09:08:52.131Z,800.77
2018-03-30T09:09:52.146Z,800.79
2018-03-30T09:10:52.158Z,800.82
2018-03-30T09:11:52.164Z,800.79
2018-03-30T09:12:52.167Z,800.76
2018-03-30T09:13:52.183Z,800.73
2018-03-30T09:14:52.190Z,800.72
2018-03-30T09:15:52.204Z,800.76
2018-03-30T09:16:52.204Z,800.79
2018-03-30T09:17:52.219Z,800.83
2018-03-30T09:18:52.229Z,800.79
2018-03-30T09:19:52.237Z,800.78
2018-03-30T09:20:52.239Z,800.75
2018-03-30T09:21:52.252Z,800.76
2018-03-30T09:22:52.270Z,800.76
2018-03-30T09:23:52.267Z,800.82
2018-03-30T09:24:52.277Z,800.88
2018-03-30T09:25:52.287Z,800.87
2018-03-30T09:26:52.300Z,800.80
2018-03-30T09:27:52.307Z,800.77
2018-03-30T09:28:52.312Z,800.74
2018-03-30T09:29:52.327Z,800.74
2018-03-30T09:30:52.338Z,800.77
2018-03-30T09:31:52.347Z,800.72
2018-03-30T09:32:52.355Z,800.70
2018-03-30T09:33:52.365Z,800.68
2018-03-30T09:34:52.375Z,800.65
2018-03-30T09:35:52.379Z,800.60
2018-03-30T09:36:52.392Z,800.63
2018-03-30T09:37:52.406Z,800.71
2018-03-30T09:38:52.449Z,800.73
2018-03-30T09:39:52.415Z,800.75
2018-03-30T09:40:52.432Z,800.74
2018-03-30T09:41:52.436Z,800.69
2018-03-30T09:42:52.452Z,800.71
2018-03-30T09:43:52.467Z,800.71
2018-03-30T09:44:52.465Z,800.73
2018-03-30T09:45:52.476Z,800.76
2018-03-30T09:46:52.485Z,800.75
2018-03-30T09:47:52.497Z,800.73
2018-03-30T09:48:52.506Z,800.71
2018-03-30T09:49:52.523Z,800.70
2018-03-30T09:50:52.527Z,800.72
2018-03-30T09:51:52.544Z,800.72
2018-03-30T09:52:52.582Z,800.71
2018-03-30T09:53:52.558Z,800.72
2018-03-30T09:54:52.590Z,800.75
2018-03-30T09:55:52.582Z,800.73
2018-03-30T09:56:52.588Z,800.71
2018-03-30T09:57:52.606Z,800.68
2018-03-30T09:58:52.613Z,800.64
2018-03-30T09:59:52.626Z,800.68
2018-03-30T10:00:52.634Z,800.69
2018-03-30T10:01:52.649Z,800.64
2018-03-30T10:02:52.657Z,800.58
2018-03-30T10:03:52.674Z,800.51
2018-03-30T10:04:52.673Z,800.54
2018-03-30T10:05:52.690Z,800.57
2018-03-30T10:06:52.697Z,800.60
2018-03-30T10:07:52.711Z,800.63
2018-03-30T10:08:52.719Z,800.66
2018-03-30T10:09:52.725Z,800.57
2018-03-30T10:10:52.740Z,800.56
2018-03-30T10:11:52.753Z,800.54
2018-03-30T10:12:52.759Z,800.51
2018-03-30T10:13:52.770Z,800.52
2018-03-30T10:14:52.782Z,800.58
2018-03-30T10:15:52.793Z,800.55
2018-03-30T10:16:52.864Z,800.57
2018-03-30T10:17:52.812Z,800.56
2018-03-30T10:18:52.831Z,800.58
2018-03-30T10:19:52.841Z,800.55
2018-03-30T10:20:52.850Z,800.50
2018-03-30T10:21:52.855Z,800.57
2018-03-30T10:22:52.872Z,800.53
2018-03-30T10:23:52.884Z,800.56
2018-03-30T10:24:52.887Z,800.60
2018-03-30T10:25:52.900Z,800.57
2018-03-30T10:26:52.918Z,800.56
2018-03-30T10:27:52.933Z,800.55
2018-03-30T10:28:52.943Z,800.53
2018-03-30T10:29:52.944Z,800.53
2018-03-30T10:30:52.962Z,800.51
2018-03-30T10:31:52.971Z,800.53
2018-03-30T10:32:52.983Z,800.54
2018-03-30T10:33:52.995Z,800.55
2018-03-30T10:34:53.005Z,800.52
2018-03-30T10:35:53.016Z,800.51
2018-03-30T10:36:53.022Z,800.52
2018-03-30T10:37:53.039Z,800.50
2018-03-30T10:38:53.050Z,800.46
2018-03-30T10:39:53.063Z,800.48
2018-03-30T10:40:53.072Z,800.52
2018-03-30T10:41:53.078Z,800.46
2018-03-30T10:42:53.096Z,800.41
2018-03-30T10:43:53.108Z,800.43
2018-03-30T10:44:53.121Z,800.40
2018-03-30T10:45:53.131Z,800.37
2018-03-30T10:46:53.145Z,800.46
2018-03-30T10:47:53.154Z,800.42
2018-03-30T10:48:53.166Z,800.42
2018-03-30T10:49:53.181Z,800.45
2018-03-30T10:50:53.184Z,800.39
2018-03-30T10:51:53.200Z,800.40
2018-03-30T10:52:53.208Z,800.52
2018-03-30T10:53:53.228Z,800.55
2018-03-30T10:54:53.234Z,800.50
2018-03-30T10:55:53.245Z,800.50
2018-03-30T10:56:53.263Z,800.47
2018-03-30T10:57:53.276Z,800.44
2018-03-30T10:58:53.289Z,800.40
2018-03-30T10:59:53.300Z,800.34
2018-03-30T11:00:53.306Z,800.46
2018-03-30T11:01:53.324Z,800.48
2018-03-30T11:02:53.336Z,800.48
2018-03-30T11:03:53.350Z,800.34
2018-03-30T11:04:53.357Z,800.43
2018-03-30T11:05:53.375Z,800.36
2018-03-30T11:06:53.384Z,800.39
2018-03-30T11:07:53.404Z,800.38
2018-03-30T11:08:53.413Z,800.40
2018-03-30T11:09:53.427Z,800.37
2018-03-30T11:10:53.436Z,800.35
2018-03-30T11:11:53.455Z,800.34
2018-03-30T11:12:53.466Z,800.30
2018-03-30T11:13:53.483Z,800.30
2018-03-30T11:14:53.495Z,800.36
2018-03-30T11:15:53.506Z,800.26
2018-03-30T11:16:53.521Z,800.26
2018-03-30T11:17:53.535Z,800.27
2018-03-30T11:18:53.550Z,800.30
2018-03-30T11:19:53.562Z,800.31
2018-03-30T11:20:53.576Z,800.30
2018-03-30T11:21:53.590Z,800.33
2018-03-30T11:22:53.596Z,800.30
2018-03-30T11:23:53.661Z,800.28
2018-03-30T11:24:53.625Z,800.07
2018-03-30T11:25:53.650Z,800.14
2018-03-30T11:26:53.653Z,800.12
2018-03-30T11:27:53.667Z,800.13
2018-03-30T11:28:53.680Z,800.08
2018-03-30T11:29:53.701Z,800.10
2018-03-30T11:30:53.716Z,800.08
2018-03-30T11:31:53.726Z,800.04
2018-03-30T11:32:53.745Z,799.98
2018-03-30T11:33:53.753Z,800.07
2018-03-30T11:34:53.776Z,800.03
2018-03-30T11:35:53.781Z,800.02
2018-03-30T11:36:53.802Z,799.95
2018-03-30T11:37:53.817Z,799.92
2018-03-30T11:38:53.829Z,799.95
2018-03-30T11:39:53.838Z,799.86
2018-03-30T11:40:53.853Z,799.81
2018-03-30T11:41:53.871Z,799.75
2018-03-30T11:42:53.883Z,799.75
2018-03-30T11:43:53.900Z,799.75
2018-03-30T11:44:53.915Z,799.73
2018-03-30T11:45:53.930Z,799.60
2018-03-30T11:46:53.945Z,799.64
2018-03-30T11:47:53.960Z,799.62
2018-03-30T11:48:53.973Z,799.58
2018-03-30T11:49:53.989Z,799.58
2018-03-30T11:50:53.998Z,799.63
2018-03-30T11:51:54.018Z,799.56
2018-03-30T11:52:54.032Z,799.60
2018-03-30T11:53:54.045Z,799.52
2018-03-30T11:54:54.061Z,799.42
2018-03-30T11:55:54.079Z,799.42
2018-03-30T11:56:54.084Z,799.40
2018-03-30T11:57:54.125Z,799.33
2018-03-30T11:58:54.117Z,799.25
2018-03-30T11:59:54.134Z,799.18
2018-03-30T12:00:54.141Z,799.18
2018-03-30T12:01:54.156Z,799.21
2018-03-30T12:02:54.171Z,799.21
2018-03-30T12:03:54.191Z,799.30
2018-03-30T12:04:54.206Z,799.25
2018-03-30T12:05:54.219Z,799.28
2018-03-30T12:06:54.232Z,799.25
2018-03-30T12:07:54.263Z,799.32
2018-03-30T12:08:54.266Z,799.32
2018-03-30T12:09:54.282Z,799.29
2018-03-30T12:10:54.297Z,799.30
2018-03-30T12:11:54.310Z,799.30
2018-03-30T12:12:54.322Z,799.29
2018-03-30T12:13:54.344Z,799.20
2018-03-30T12:14:54.358Z,799.11
2018-03-30T12:15:54.375Z,799.09
2018-03-30T12:16:54.383Z,799.10
2018-03-30T12:17:54.398Z,799.09
2018-03-30T12:18:54.413Z,799.00
2018-03-30T12:19:54.434Z,798.97
2018-03-30T12:20:54.442Z,798.97
2018-03-30T12:21:54.463Z,798.97
2018-03-30T12:22:54.473Z,799.00
2018-03-30T12:23:54.487Z,799.01
2018-03-30T12:24:54.507Z,799.00
2018-03-30T12:25:54.517Z,798.99
2018-03-30T12:26:54.592Z,798.97
2018-03-30T12:27:54.545Z,798.97
2018-03-30T12:28:54.569Z,798.99